createdAt,value
2022-09-05T00:01:32.366Z,99.90
2022-09-05T00:04:24.304Z,99.90
2022-09-05T00:06:59.127Z,99.90
2022-09-05T00:09:44.145Z,99.90
2022-09-05T00:12:13.328Z,99.90
2022-09-05T00:15:17.219Z,99.90
2022-09-05T00:20:40.630Z,99.90
2022-09-05T00:24:20.042Z,99.90
2022-09-05T00:24:28.939Z,99.90
2022-09-05T00:31:08.949Z,99.90
2022-09-05T00:33:26.638Z,99.90
2022-09-05T00:36:03.021Z,99.90
2022-09-05T00:38:36.994Z,99.90
2022-09-05T00:41:06.943Z,99.90
2022-09-05T00:43:37.691Z,99.90
2022-09-05T00:46:14.237Z,99.90
2022-09-05T00:48:54.206Z,99.90
2022-09-05T00:51:34.870Z,99.90
2022-09-05T00:54:26.850Z,99.90
2022-09-05T00:57:31.661Z,99.90
2022-09-05T01:00:10.734Z,99.90
2022-09-05T01:02:52.658Z,99.90
2022-09-05T01:05:32.722Z,99.90
2022-09-05T01:08:12.570Z,99.90
2022-09-05T01:10:50.595Z,99.90
2022-09-05T01:13:30.507Z,99.90
2022-09-05T01:16:07.279Z,99.90
2022-09-05T01:18:54.608Z,99.90
2022-09-05T01:21:34.519Z,99.90
2022-09-05T01:24:17.920Z,99.90
2022-09-05T01:27:15.428Z,99.90
2022-09-05T01:29:57.359Z,99.90
2022-09-05T01:32:38.195Z,99.90
2022-09-05T01:35:19.070Z,99.90
2022-09-05T01:37:59.071Z,99.90
2022-09-05T01:41:17.735Z,99.90
2022-09-05T01:43:56.827Z,99.90
2022-09-05T01:46:45.096Z,99.90
2022-09-05T01:49:26.319Z,99.90
2022-09-05T01:52:07.599Z,99.90
2022-09-05T01:54:47.206Z,99.90
2022-09-05T01:57:27.164Z,99.90
2022-09-05T02:00:14.599Z,99.90
2022-09-05T02:03:02.072Z,99.90
2022-09-05T02:05:52.319Z,99.90
2022-09-05T02:08:28.933Z,99.90
2022-09-05T02:11:15.341Z,99.90
2022-09-05T02:14:24.478Z,99.90
2022-09-05T02:17:44.790Z,99.90
2022-09-05T02:20:13.110Z,99.90
2022-09-05T02:23:25.999Z,99.90
2022-09-05T02:26:21.035Z,99.90
2022-09-05T02:28:57.187Z,99.80
2022-09-05T02:31:42.322Z,99.70
2022-09-05T02:34:16.999Z,99.70
2022-09-05T02:36:59.417Z,99.60
2022-09-05T02:45:08.005Z,99.60
2022-09-05T02:45:21.519Z,99.70
2022-09-05T02:46:08.585Z,99.60
2022-09-05T02:48:48.572Z,99.90
2022-09-05T02:57:23.229Z,99.70
2022-09-05T02:57:33.268Z,99.60
2022-09-05T02:58:06.431Z,99.40
2022-09-05T03:00:20.854Z,99.40
2022-09-05T03:03:03.977Z,99.40
2022-09-05T03:05:46.367Z,99.40
2022-09-05T03:08:20.923Z,99.40
2022-09-05T03:11:01.387Z,99.40
2022-09-05T03:13:48.178Z,99.30
2022-09-05T03:16:36.488Z,99.30
2022-09-05T03:19:25.837Z,99.30
2022-09-05T03:22:06.751Z,99.20
2022-09-05T03:24:55.618Z,99.20
2022-09-05T03:27:36.955Z,99.10
2022-09-05T03:30:17.994Z,99.10
2022-09-05T03:33:04.018Z,99.10
2022-09-05T03:35:49.122Z,99.10
2022-09-05T03:38:38.137Z,99.00
2022-09-05T03:41:18.197Z,98.80
2022-09-05T03:43:54.912Z,98.80
2022-09-05T03:46:42.685Z,98.70
2022-09-05T03:51:02.997Z,98.70
2022-09-05T03:57:12.924Z,98.70
2022-09-05T03:57:19.054Z,98.70
2022-09-05T04:03:00.042Z,98.70
2022-09-05T04:08:20.442Z,98.70
2022-09-05T04:08:24.900Z,98.70
2022-09-05T04:10:29.674Z,98.60
2022-09-05T04:13:10.303Z,98.50
2022-09-05T04:15:45.886Z,98.50
2022-09-05T04:18:32.786Z,98.40
2022-09-05T04:21:12.245Z,98.40
2022-09-05T04:23:52.136Z,98.20
2022-09-05T04:26:40.304Z,98.10
2022-09-05T04:29:20.232Z,98.10
2022-09-05T04:32:17.676Z,98.00
2022-09-05T04:34:59.201Z,98.00
2022-09-05T04:37:48.947Z,97.90
2022-09-05T04:40:32.801Z,97.90
2022-09-05T04:43:04.028Z,97.80
2022-09-05T04:45:36.875Z,97.70
2022-09-05T04:48:06.537Z,97.70
2022-09-05T04:50:43.725Z,97.70
2022-09-05T04:53:27.984Z,97.80
2022-09-05T04:55:58.283Z,97.80
2022-09-05T04:59:14.555Z,97.90
2022-09-05T05:06:03.274Z,98.00
2022-09-05T05:06:11.746Z,98.00
2022-09-05T05:07:14.580Z,98.00
2022-09-05T05:10:01.900Z,98.00
2022-09-05T05:17:55.852Z,98.00
2022-09-05T05:18:16.110Z,97.90
2022-09-05T05:19:18.559Z,97.90
2022-09-05T05:21:52.577Z,97.80
2022-09-05T05:24:24.874Z,97.90
2022-09-05T05:26:59.325Z,97.90
2022-09-05T05:29:44.723Z,97.70
2022-09-05T05:32:34.592Z,97.80
2022-09-05T05:35:19.665Z,97.80
2022-09-05T05:38:07.666Z,97.80
2022-09-05T05:40:50.996Z,97.70
2022-09-05T05:43:26.833Z,97.50
2022-09-05T05:45:59.562Z,97.50
2022-09-05T05:48:31.453Z,97.30
2022-09-05T05:51:14.464Z,97.30
2022-09-05T05:53:54.686Z,97.20
2022-09-05T05:56:34.590Z,97.20
2022-09-05T05:59:20.174Z,97.20
2022-09-05T06:02:10.824Z,97.00
2022-09-05T06:04:50.905Z,96.90
2022-09-05T06:07:33.328Z,96.70
2022-09-05T06:14:48.918Z,95.90
2022-09-05T06:15:06.008Z,96.10
2022-09-05T06:17:03.351Z,96.20
2022-09-05T06:20:34.466Z,96.30
2022-09-05T06:22:45.824Z,96.40
2022-09-05T06:25:28.646Z,96.30
2022-09-05T06:28:20.168Z,96.30
2022-09-05T06:31:27.582Z,96.20
2022-09-05T06:34:33.471Z,95.50
2022-09-05T06:37:30.613Z,96.00
2022-09-05T06:40:12.543Z,96.10
2022-09-05T06:42:57.817Z,95.80
2022-09-05T06:45:38.046Z,95.90
2022-09-05T06:48:40.155Z,95.70
2022-09-05T06:51:25.820Z,95.20
2022-09-05T06:54:02.097Z,95.30
2022-09-05T06:56:49.654Z,95.20
2022-09-05T06:59:34.677Z,95.30
2022-09-05T07:02:12.378Z,95.20
2022-09-05T07:05:37.796Z,95.40
2022-09-05T07:07:46.073Z,95.30
2022-09-05T07:10:37.798Z,95.20
2022-09-05T07:13:12.573Z,94.90
2022-09-05T07:15:52.803Z,95.00
2022-09-05T07:18:32.239Z,95.40
2022-09-05T07:21:16.946Z,95.50
2022-09-05T07:24:09.254Z,95.30
2022-09-05T07:26:53.616Z,95.00
2022-09-05T07:29:35.627Z,94.90
2022-09-05T07:32:07.467Z,94.70
2022-09-05T07:34:36.018Z,94.90
2022-09-05T07:37:18.582Z,94.30
2022-09-05T07:40:03.961Z,94.20
2022-09-05T07:43:08.320Z,94.10
2022-09-05T07:45:55.441Z,94.40
2022-09-05T07:48:34.931Z,94.20
2022-09-05T07:56:54.863Z,93.80
2022-09-05T07:56:56.045Z,94.20
2022-09-05T07:57:25.391Z,94.90
2022-09-05T07:59:47.735Z,95.00
2022-09-05T08:02:16.593Z,94.70
2022-09-05T08:04:44.452Z,94.40
2022-09-05T08:07:47.143Z,94.40
2022-09-05T08:10:10.249Z,94.30
2022-09-05T08:12:51.915Z,94.40
2022-09-05T08:16:04.300Z,94.20
2022-09-05T08:18:43.375Z,94.50
2022-09-05T08:21:31.169Z,94.20
2022-09-05T08:24:13.164Z,94.20
2022-09-05T08:27:01.766Z,94.60
2022-09-05T08:30:25.135Z,94.20
2022-09-05T08:32:54.109Z,94.80
2022-09-05T08:35:39.413Z,94.70
2022-09-05T08:38:12.278Z,94.70
2022-09-05T08:40:50.298Z,95.10
2022-09-05T08:46:36.545Z,95.10
2022-09-05T08:46:41.513Z,95.40
2022-09-05T08:49:36.404Z,95.70
2022-09-05T08:52:25.967Z,95.90
2022-09-05T08:55:05.693Z,95.90
2022-09-05T08:57:48.255Z,96.20
2022-09-05T09:00:20.251Z,96.30
2022-09-05T09:03:09.262Z,96.40
2022-09-05T09:06:11.924Z,96.40
2022-09-05T09:09:05.428Z,96.40
2022-09-05T09:11:53.987Z,96.70
2022-09-05T09:14:34.916Z,96.80
2022-09-05T09:17:14.802Z,97.00
2022-09-05T09:19:51.102Z,97.20
2022-09-05T09:22:31.046Z,97.40
2022-09-05T09:25:15.233Z,97.40
2022-09-05T09:28:40.779Z,97.70
2022-09-05T09:30:48.245Z,97.90
2022-09-05T09:33:27.125Z,98.10
2022-09-05T09:36:07.874Z,98.10
2022-09-05T09:38:54.603Z,98.90
2022-09-05T09:41:45.745Z,98.70
2022-09-05T09:44:26.618Z,98.70
2022-09-05T09:46:55.381Z,98.70
2022-09-05T09:49:35.724Z,98.70
2022-09-05T09:52:21.141Z,97.90
2022-09-05T09:55:08.672Z,98.10
2022-09-05T09:57:57.799Z,97.70
2022-09-05T10:00:27.670Z,97.80
2022-09-05T10:09:07.912Z,97.80
2022-09-05T10:10:33.791Z,97.70
2022-09-05T10:10:53.560Z,97.80
2022-09-05T10:12:31.763Z,97.70
2022-09-05T10:15:30.429Z,97.90
2022-09-05T10:18:11.784Z,98.00
2022-09-05T10:21:16.709Z,98.00
2022-09-05T10:23:58.781Z,98.10
2022-09-05T10:26:39.591Z,98.00
2022-09-05T10:29:36.978Z,98.20
2022-09-05T10:35:07.489Z,98.20
2022-09-05T10:35:22.207Z,98.70
2022-09-05T10:38:10.108Z,98.90
2022-09-05T10:41:19.917Z,98.70
2022-09-05T10:43:29.433Z,98.70
2022-09-05T10:46:17.007Z,98.60
2022-09-05T10:48:55.761Z,98.60
2022-09-05T10:51:32.493Z,98.60
2022-09-05T10:54:14.975Z,98.90
2022-09-05T10:56:50.900Z,99.00
2022-09-05T11:01:43.189Z,99.00
2022-09-05T11:02:34.901Z,99.50
2022-09-05T11:05:24.056Z,99.20
2022-09-05T11:08:12.849Z,99.30
2022-09-05T11:11:01.039Z,99.20
2022-09-05T11:13:49.331Z,99.40
2022-09-05T11:16:36.716Z,99.70
2022-09-05T11:19:06.634Z,99.70
2022-09-05T11:22:10.293Z,99.70
2022-09-05T11:24:48.456Z,99.70
2022-09-05T11:27:28.615Z,99.70
2022-09-05T11:29:58.926Z,99.90
2022-09-05T11:38:24.060Z,99.80
2022-09-05T11:39:50.315Z,99.80
2022-09-05T11:39:50.834Z,99.90
2022-09-05T11:41:35.311Z,99.40
2022-09-05T11:44:24.855Z,99.70
2022-09-05T11:47:27.224Z,99.80
2022-09-05T11:50:14.841Z,99.40
2022-09-05T11:52:56.436Z,99.50
2022-09-05T11:55:44.031Z,99.50
2022-09-05T11:58:44.792Z,99.90
2022-09-05T12:01:43.143Z,99.90
2022-09-05T12:04:24.805Z,99.90
2022-09-05T12:10:47.031Z,99.80
2022-09-05T12:13:17.454Z,99.90
2022-09-05T12:16:08.258Z,99.90
2022-09-05T12:19:06.228Z,99.90
2022-09-05T12:22:08.855Z,99.90
2022-09-05T12:25:24.726Z,99.90
2022-09-05T12:27:55.811Z,99.90
2022-09-05T12:30:55.081Z,99.90
2022-09-05T12:36:01.254Z,99.90
2022-09-05T12:40:45.024Z,99.90
2022-09-05T12:41:33.047Z,99.90
2022-09-05T12:41:40.967Z,99.80
2022-09-05T12:43:53.017Z,99.90
2022-09-05T12:48:39.120Z,99.90
2022-09-05T12:51:10.455Z,99.90
2022-09-05T12:53:51.303Z,99.90
2022-09-05T12:57:36.008Z,99.90
2022-09-05T13:03:01.344Z,99.90
2022-09-05T13:03:07.997Z,99.90
2022-09-05T13:05:02.639Z,99.90
2022-09-05T13:07:38.268Z,99.90
2022-09-05T13:12:45.264Z,99.90
2022-09-05T13:15:02.799Z,99.90
2022-09-05T13:15:49.086Z,99.90
2022-09-05T13:18:22.929Z,99.90
2022-09-05T13:21:05.571Z,99.90
2022-09-05T13:23:48.747Z,99.90
2022-09-05T13:26:25.062Z,99.90
2022-09-05T13:29:09.917Z,99.90
2022-09-05T13:37:59.308Z,99.90
2022-09-05T13:38:05.341Z,99.90
2022-09-05T13:38:14.912Z,99.90
2022-09-05T13:40:31.924Z,99.90
2022-09-05T13:43:10.969Z,99.90
2022-09-05T13:45:52.117Z,99.90
2022-09-05T13:48:27.936Z,99.90
2022-09-05T13:51:00.417Z,99.90
2022-09-05T13:53:36.939Z,99.90
2022-09-05T13:56:20.679Z,99.90
2022-09-05T13:58:57.085Z,99.90
2022-09-05T14:01:39.654Z,99.90
2022-09-05T14:07:48.538Z,99.90
2022-09-05T14:10:36.082Z,99.90
2022-09-05T14:13:12.767Z,99.90
2022-09-05T14:15:52.919Z,99.90
2022-09-05T14:18:52.645Z,99.90
2022-09-05T14:21:22.378Z,99.90
2022-09-05T14:23:58.574Z,99.90
2022-09-05T14:26:31.644Z,99.90
2022-09-05T14:29:02.826Z,99.90
2022-09-05T14:36:20.140Z,99.90
2022-09-05T14:37:43.663Z,99.90
2022-09-05T14:38:04.220Z,99.90
2022-09-05T14:40:43.897Z,99.90
2022-09-05T14:43:27.037Z,99.90
2022-09-05T14:46:08.500Z,99.90
2022-09-05T14:48:53.613Z,99.90
2022-09-05T14:51:34.249Z,99.90
2022-09-05T14:54:05.284Z,99.90
2022-09-05T15:00:18.634Z,99.90
2022-09-05T15:02:49.444Z,99.90
2022-09-05T15:02:51.312Z,99.90
2022-09-05T15:05:23.023Z,99.90
2022-09-05T15:07:55.283Z,99.90
2022-09-05T15:12:21.031Z,99.90
2022-09-05T15:13:25.643Z,99.90
2022-09-05T15:16:02.804Z,99.90
2022-09-05T15:18:34.110Z,99.90
2022-09-05T15:21:13.946Z,99.90
2022-09-05T15:23:46.164Z,99.90
2022-09-05T15:26:18.860Z,99.90
2022-09-05T15:29:04.235Z,99.90
2022-09-05T15:31:43.102Z,99.90
2022-09-05T15:34:29.481Z,99.90
2022-09-05T15:37:08.939Z,99.90
2022-09-05T15:39:45.122Z,99.90
2022-09-05T15:42:14.708Z,99.90
2022-09-05T15:45:06.328Z,99.90
2022-09-05T15:47:33.989Z,99.90
2022-09-05T15:50:05.190Z,99.90
2022-09-05T15:52:42.651Z,99.90
2022-09-05T15:55:28.418Z,99.90
2022-09-05T15:57:58.534Z,99.90
2022-09-05T16:00:39.260Z,99.90
2022-09-05T16:03:58.156Z,99.90
2022-09-05T16:10:38.381Z,99.90
2022-09-05T16:10:59.084Z,99.90
2022-09-05T16:14:39.613Z,99.90
2022-09-05T16:23:19.047Z,99.90
2022-09-05T16:23:31.185Z,99.90
2022-09-05T16:23:39.541Z,99.90
2022-09-05T16:26:12.424Z,99.90
2022-09-05T16:28:44.909Z,99.90
2022-09-05T16:31:26.313Z,99.90
2022-09-05T16:33:56.554Z,99.90
2022-09-05T16:36:30.053Z,99.90
2022-09-05T16:39:03.453Z,99.90
2022-09-05T16:41:51.684Z,99.90
2022-09-05T16:44:31.578Z,99.90
2022-09-05T16:47:15.162Z,99.90
2022-09-05T16:49:49.391Z,99.90
2022-09-05T16:52:22.740Z,99.90
2022-09-05T16:54:56.038Z,99.90
2022-09-05T16:57:27.091Z,99.90
2022-09-05T16:59:55.238Z,99.90
2022-09-05T17:02:29.979Z,99.90
2022-09-05T17:05:09.077Z,99.90
2022-09-05T17:07:49.903Z,99.90
2022-09-05T17:10:18.648Z,99.90
2022-09-05T17:12:46.578Z,99.90
2022-09-05T17:15:17.759Z,99.90
2022-09-05T17:18:21.327Z,99.90
2022-09-05T17:20:54.702Z,99.90
2022-09-05T17:29:20.921Z,99.90
2022-09-05T17:29:23.461Z,99.90
2022-09-05T17:31:27.692Z,99.90
2022-09-05T17:32:18.906Z,99.90
2022-09-05T17:34:51.470Z,99.90
2022-09-05T17:37:31.380Z,99.90
2022-09-05T17:40:11.285Z,99.90
2022-09-05T17:42:51.248Z,99.90
2022-09-05T17:45:30.244Z,99.90
2022-09-05T17:47:58.355Z,99.90
2022-09-05T17:50:43.833Z,99.90
2022-09-05T17:53:25.088Z,99.90
2022-09-05T17:56:10.894Z,99.90
2022-09-05T17:58:49.472Z,99.90
2022-09-05T18:01:22.794Z,99.90
2022-09-05T18:03:55.958Z,99.90
2022-09-05T18:06:52.715Z,99.90
2022-09-05T18:09:48.996Z,99.90
2022-09-05T18:13:31.499Z,99.90
2022-09-05T18:15:32.878Z,99.90
2022-09-05T18:18:02.332Z,99.90
2022-09-05T18:20:34.139Z,99.90
2022-09-05T18:23:39.087Z,99.90
2022-09-05T18:26:28.838Z,99.90
2022-09-05T18:29:14.680Z,99.90
2022-09-05T18:31:59.221Z,99.90
2022-09-05T18:34:46.218Z,99.90
2022-09-05T18:37:27.455Z,99.90
2022-09-05T18:40:06.518Z,99.90
2022-09-05T18:42:38.043Z,99.90
2022-09-05T18:45:28.731Z,99.90
2022-09-05T18:48:03.504Z,99.90
2022-09-05T18:50:39.923Z,99.90
2022-09-05T18:53:13.044Z,99.90
2022-09-05T18:56:12.453Z,99.90
2022-09-05T18:58:52.280Z,99.90
2022-09-05T19:01:40.697Z,99.90
2022-09-05T19:04:38.951Z,99.90
2022-09-05T19:07:07.886Z,99.90
2022-09-05T19:09:37.663Z,99.90
2022-09-05T19:12:32.165Z,99.90
2022-09-05T19:14:56.946Z,99.90
2022-09-05T19:17:46.969Z,99.90
2022-09-05T19:20:32.202Z,99.90
2022-09-05T19:23:12.776Z,99.90
2022-09-05T19:25:43.920Z,99.90
2022-09-05T19:34:08.545Z,99.90
2022-09-05T19:36:52.113Z,99.90
2022-09-05T19:36:56.791Z,99.90
2022-09-05T19:37:30.542Z,99.90
2022-09-05T19:44:23.713Z,99.90
2022-09-05T19:47:39.306Z,99.90
2022-09-05T19:47:40.605Z,99.90
2022-09-05T19:48:27.364Z,99.90
2022-09-05T19:50:56.221Z,99.90
2022-09-05T19:53:24.556Z,99.90
2022-09-05T19:55:54.011Z,99.90
2022-09-05T19:58:22.733Z,99.90
2022-09-05T20:01:02.363Z,99.90
2022-09-05T20:03:39.105Z,99.90
2022-09-05T20:06:29.416Z,99.90
2022-09-05T20:09:10.385Z,99.90
2022-09-05T20:11:46.453Z,99.90
2022-09-05T20:14:37.834Z,99.90
2022-09-05T20:17:17.728Z,99.90
2022-09-05T20:19:45.756Z,99.90
2022-09-05T20:22:47.100Z,99.90
2022-09-05T20:25:09.690Z,99.90
2022-09-05T20:27:47.427Z,99.90
2022-09-05T20:30:21.622Z,99.90
2022-09-05T20:32:53.617Z,99.90
2022-09-05T20:40:03.926Z,99.90
2022-09-05T20:43:23.806Z,99.90
2022-09-05T20:43:24.764Z,99.90
2022-09-05T20:44:24.963Z,99.90
2022-09-05T20:54:04.692Z,99.90
2022-09-05T20:54:27.561Z,99.90
2022-09-05T20:54:27.891Z,99.90
2022-09-05T20:58:31.165Z,99.90
2022-09-05T21:01:20.271Z,99.90
2022-09-05T21:04:00.588Z,99.90
2022-09-05T21:06:33.385Z,99.90
2022-09-05T21:09:14.287Z,99.90
2022-09-05T21:11:42.811Z,99.90
2022-09-05T21:14:11.450Z,99.90
2022-09-05T21:16:45.117Z,99.90
2022-09-05T21:19:23.131Z,99.90
2022-09-05T21:22:02.343Z,99.90
2022-09-05T21:24:30.519Z,99.90
2022-09-05T21:27:11.294Z,99.90
2022-09-05T21:29:42.345Z,99.90
2022-09-05T21:32:13.393Z,99.90
2022-09-05T21:37:34.552Z,99.90
2022-09-05T21:40:02.388Z,99.90
2022-09-05T21:46:23.710Z,99.90
2022-09-05T21:47:44.090Z,99.90
2022-09-05T21:48:09.878Z,99.90
2022-09-05T21:50:47.913Z,99.90
2022-09-05T21:57:08.236Z,99.90
2022-09-05T21:59:22.615Z,99.90
2022-09-05T21:59:36.789Z,99.90
2022-09-05T22:01:57.540Z,99.90
2022-09-05T22:04:25.350Z,99.90
2022-09-05T22:06:54.664Z,99.90
2022-09-05T22:09:23.039Z,99.90
2022-09-05T22:11:52.672Z,99.90
2022-09-05T22:14:21.758Z,99.90
2022-09-05T22:16:54.708Z,99.90
2022-09-05T22:19:36.814Z,99.90
2022-09-05T22:22:09.315Z,99.90
2022-09-05T22:24:37.813Z,99.90
2022-09-05T22:27:11.326Z,99.90
2022-09-05T22:29:41.786Z,99.90
2022-09-05T22:32:10.431Z,99.90
2022-09-05T22:34:38.115Z,99.90
2022-09-05T22:37:05.901Z,99.90
2022-09-05T22:39:36.850Z,99.90
2022-09-05T22:42:10.762Z,99.90
2022-09-05T22:44:40.816Z,99.90
2022-09-05T22:47:09.672Z,99.90
2022-09-05T22:49:37.768Z,99.90
2022-09-05T22:52:07.420Z,99.90
2022-09-05T22:54:36.945Z,99.90
2022-09-05T22:57:05.021Z,99.90
2022-09-05T22:59:33.560Z,99.90
2022-09-05T23:02:01.386Z,99.90
2022-09-05T23:04:29.375Z,99.90
2022-09-05T23:06:57.042Z,99.90
2022-09-05T23:09:24.741Z,99.90
2022-09-05T23:11:52.403Z,99.90
2022-09-05T23:14:20.049Z,99.90
2022-09-05T23:16:48.606Z,99.90
2022-09-05T23:19:17.287Z,99.90
2022-09-05T23:21:45.384Z,99.90
2022-09-05T23:24:13.037Z,99.90
2022-09-05T23:26:40.675Z,99.90
2022-09-05T23:29:08.320Z,99.90
2022-09-05T23:31:36.029Z,99.90
2022-09-05T23:34:04.516Z,99.90
2022-09-05T23:36:33.369Z,99.90
2022-09-05T23:39:01.278Z,99.90
2022-09-05T23:41:29.994Z,99.90
2022-09-05T23:43:58.518Z,99.90
2022-09-05T23:46:26.324Z,99.90
2022-09-05T23:48:54.105Z,99.90
2022-09-05T23:51:21.925Z,99.90
2022-09-05T23:53:49.685Z,99.90
2022-09-05T23:56:18.271Z,99.90
2022-09-05T23:58:46.972Z,99.90
